Main page
METAR-TAF:

METAR-TAF

Airports :

Aigen im Ennstal, Austria

latitude: 47-32N, longitude: 014-08E, elevation: 638 m

METAR: missing

Time: 14:51 (13:51 UTC)

Forecast

The report was made 29 hours and 36 minutes ago, at 08:15 UTC
Forecast valid from 13 at 09 UTC to 13 at 18 UTC
Wind 3 kt from variable directions
Visibility: 5000 m
Scattered clouds at a height of 400 ft
Broken clouds at a height of 600 ft
mist
Becoming
from 13 at 09 UTC to 13 at 11 UTC
Visibility 10 km or more
Few clouds at a height of 500 ft
Scattered clouds at a height of 5000 ft
Broken clouds at a height of 13000 ft
Temporary
from 13 at 14 UTC to 13 at 18 UTC
Visibility: 3000 m
Few clouds at a height of 500 ft
Scattered clouds at a height of 1000 ft
Broken clouds at a height of 2000 ft
light snow

TAF: LOXA 130815Z 1309/1318 VRB03KT 5000 BR SCT004 BKN006 BECMG 1309/1311 9999 FEW005 SCT050 BKN130 TEMPO 1314/1318 3000 -SN FEW005 SCT010 BKN020

Weather observations and forecasts of more than 4000 airports (METAR and TAF reports).

The available stations are represented by yellow and red dots on the map.

Hover mouse over dot to see the name of the station.

Then click to see weather observations and forecasts.

To change the map : click on the green buttons with a black cross to zoom in, on the green button with a dash to zoom out, or on the green arrows for adjacent maps.


METAR-TAF: